Time;durP1;ratioP1;P1;durP2;ratioP2;P2;SDS_P1;SDS_P2;PMS_P1;PMS_P2;Temp;Humidity;BMP_temperature;BMP_pressure;BME280_temperature;BME280_humidity;BME280_pressure;Samples;Min_cycle;Max_cycle;Signal;HPM_P1;HPM_P2
2022/05/25 00:01:05;;;;;;;4.28;0.90;;;;;;;12.85;100.00;101148.15;1869269;75;21035;-73
2022/05/25 00:03:34;;;;;;;2.17;1.00;;;;;;;12.83;100.00;101155.45;1856312;76;21509;-73
2022/05/25 00:06:04;;;;;;;1.90;0.80;;;;;;;12.88;100.00;101157.19;1865409;75;22300;-73
2022/05/25 00:08:32;;;;;;;2.25;1.10;;;;;;;12.83;100.00;101161.45;1851817;77;21031;-73
2022/05/25 00:10:59;;;;;;;5.60;1.00;;;;;;;12.81;100.00;101162.31;1856265;75;21227;-74
2022/05/25 00:13:27;;;;;;;2.90;0.90;;;;;;;12.79;100.00;101160.18;1868029;75;21051;-73
2022/05/25 00:15:54;;;;;;;1.27;0.72;;;;;;;12.81;100.00;101158.45;1878835;75;21142;-74
2022/05/25 00:18:22;;;;;;;6.30;1.00;;;;;;;12.84;100.00;101163.61;1873776;76;21035;-74
2022/05/25 00:20:50;;;;;;;2.55;0.98;;;;;;;12.74;100.00;101158.87;1861610;76;21186;-74
2022/05/25 00:30:40;;;;;;;3.00;1.05;;;;;;;12.72;100.00;101157.58;1858426;76;21083;-73
2022/05/25 00:33:08;;;;;;;1.40;0.70;;;;;;;12.79;100.00;101165.34;1858369;76;21059;-73
2022/05/25 00:35:37;;;;;;;1.52;1.20;;;;;;;12.71;100.00;101167.89;1858488;76;21186;-73
2022/05/25 00:45:22;;;;;;;2.47;0.80;;;;;;;12.69;100.00;101160.59;1859080;76;21095;-73
2022/05/25 00:47:51;;;;;;;4.35;1.10;;;;;;;12.60;100.00;101158.44;1833089;76;21034;-74
2022/05/25 00:50:21;;;;;;;2.15;0.80;;;;;;;12.62;100.00;101155.41;1858511;76;21105;-73
2022/05/25 00:52:49;;;;;;;2.60;0.90;;;;;;;12.63;100.00;101157.58;1858183;76;21530;-73
2022/05/25 00:55:26;;;;;;;1.35;1.20;;;;;;;12.51;100.00;101168.28;1833342;77;21157;-73
2022/05/25 00:57:52;;;;;;;1.27;0.70;;;;;;;12.47;100.00;101165.69;1859375;76;21710;-74
2022/05/25 01:00:22;;;;;;;1.32;1.12;;;;;;;12.46;100.00;101166.55;1846306;76;21085;-74
2022/05/25 01:02:56;;;;;;;3.20;1.07;;;;;;;12.42;100.00;101165.69;1881059;75;21500;-74
2022/05/25 01:05:24;;;;;;;;;;;;;;;12.45;100.00;101170.83;1869891;75;21140;-74
2022/05/25 01:08:00;;;;;;;3.50;0.62;;;;;;;12.50;100.00;101170.85;1866249;75;20152;-74
2022/05/25 01:10:52;;;;;;;1.60;0.70;;;;;;;12.42;100.00;101176.42;1769573;77;21113;-73
2022/05/25 01:13:25;;;;;;;4.40;0.95;;;;;;;12.44;100.00;101175.56;1796864;79;21049;-73
2022/05/25 01:16:21;;;;;;;8.80;1.43;;;;;;;12.44;100.00;101172.14;1796414;79;21081;-73
2022/05/25 01:19:08;;;;;;;2.50;0.68;;;;;;;12.55;100.00;101178.61;1772003;79;21045;-73
2022/05/25 01:21:59;;;;;;;2.87;1.00;;;;;;;12.49;100.00;101173.01;1814827;79;21034;-74
2022/05/25 01:24:38;;;;;;;1.82;0.90;;;;;;;12.42;100.00;101173.84;1814846;79;21081;-73
2022/05/25 01:27:37;;;;;;;5.25;1.17;;;;;;;12.49;100.00;101180.73;1812704;79;21037;-73
2022/05/25 01:30:07;;;;;;;3.85;0.72;;;;;;;12.46;100.00;101175.56;1814993;79;21070;-73
2022/05/25 01:32:43;;;;;;;2.35;0.78;;;;;;;12.55;100.00;101180.73;1814555;79;21065;-74
2022/05/25 01:35:30;;;;;;;2.95;0.72;;;;;;;12.58;100.00;101184.62;1814725;79;21498;-74
2022/05/25 01:38:01;;;;;;;4.47;0.90;;;;;;;12.60;100.00;101188.49;1814810;79;21038;-73
2022/05/25 01:40:40;;;;;;;2.77;0.80;;;;;;;12.57;100.00;101182.91;1814887;79;21092;-73
2022/05/25 01:43:16;;;;;;;6.15;1.02;;;;;;;12.57;100.00;101180.74;1789547;79;21045;-74
2022/05/25 01:45:47;;;;;;;3.00;0.75;;;;;;;12.63;100.00;101184.64;1814974;79;21122;-74
2022/05/25 01:48:16;;;;;;;2.20;0.90;;;;;;;12.63;100.00;101192.38;1814551;79;21018;-74
2022/05/25 01:50:46;;;;;;;3.55;2.20;;;;;;;12.75;100.00;101194.10;1814687;79;21049;-74
2022/05/25 01:53:15;;;;;;;6.28;1.25;;;;;;;12.66;100.00;101200.13;1814613;77;21064;-73
2022/05/25 01:55:46;;;;;;;5.80;0.80;;;;;;;12.61;100.00;101194.95;1813740;79;21096;-73
2022/05/25 01:58:16;;;;;;;2.83;0.90;;;;;;;12.60;100.00;101198.39;1812556;77;21153;-73
2022/05/25 02:00:50;;;;;;;4.03;0.82;;;;;;;12.58;100.00;101205.23;1826510;76;21088;-73
2022/05/25 02:06:38;;;;;;;4.60;1.22;;;;;;;12.70;100.00;101200.56;1810664;78;21144;-73
2022/05/25 02:09:08;;;;;;;4.80;0.80;;;;;;;12.62;100.00;101199.23;1817354;77;21618;-73
2022/05/25 02:11:44;;;;;;;4.17;1.02;;;;;;;12.67;100.00;101206.12;1825221;77;21457;-74
2022/05/25 02:14:36;;;;;;;2.50;0.82;;;;;;;12.70;100.00;101200.98;1793085;77;21096;-74
2022/05/25 02:17:15;;;;;;;2.85;0.90;;;;;;;12.71;100.00;101200.98;1792328;79;21156;-74
2022/05/25 02:20:09;;;;;;;3.40;0.95;;;;;;;12.82;100.00;101198.42;1814469;79;21045;-74
2022/05/25 02:22:43;;;;;;;2.52;0.70;;;;;;;12.87;100.00;101195.86;1814659;79;21069;-73
2022/05/25 02:25:33;;;;;;;6.78;2.98;;;;;;;12.85;100.00;101197.14;1813956;79;21197;-74
2022/05/25 02:28:06;;;;;;;1.60;0.90;;;;;;;12.82;100.00;101202.73;1814408;79;21106;-73
2022/05/25 02:30:34;;;;;;;;;;;;;;;12.92;100.00;101193.27;1816648;79;21482;-73
2022/05/25 02:33:10;;;;;;;5.10;1.70;;;;;;;12.83;100.00;101185.11;1814728;79;20111;-73
2022/05/25 02:35:39;;;;;;;7.00;0.98;;;;;;;12.82;100.00;101195.84;1814900;79;21108;-73
2022/05/25 02:38:08;;;;;;;4.55;1.00;;;;;;;12.76;100.00;101194.56;1814874;77;21045;-74
2022/05/25 02:40:37;;;;;;;3.65;1.10;;;;;;;12.76;100.00;101201.00;1814762;79;21069;-73
2022/05/25 02:43:06;;;;;;;2.25;1.00;;;;;;;12.74;100.00;101203.99;1814905;79;21049;-73
2022/05/25 02:45:35;;;;;;;2.50;0.80;;;;;;;12.79;100.00;101204.02;1775047;80;21116;-74
2022/05/25 02:48:03;;;;;;;4.87;1.45;;;;;;;12.91;100.00;101213.06;1811217;79;21127;-74
2022/05/25 02:50:31;;;;;;;2.83;0.98;;;;;;;12.75;100.00;101214.73;1815003;79;21466;-73
2022/05/25 02:52:59;;;;;;;11.25;1.20;;;;;;;12.82;100.00;101206.16;1814790;79;21045;-74
2022/05/25 02:55:26;;;;;;;4.33;1.00;;;;;;;12.72;100.00;101205.72;1814859;79;21122;-74
2022/05/25 02:57:57;;;;;;;1.65;0.72;;;;;;;12.64;100.00;101203.98;1763652;80;21204;-73
2022/05/25 03:00:23;;;;;;;7.47;1.67;;;;;;;12.71;100.00;101198.83;1802306;77;21308;-74
2022/05/25 03:02:50;;;;;;;5.55;1.60;;;;;;;12.75;100.00;101205.29;1780351;80;21036;-74
2022/05/25 03:05:18;;;;;;;4.17;1.20;;;;;;;12.64;100.00;101197.95;1799973;79;21679;-74
2022/05/25 03:07:45;;;;;;;3.87;1.30;;;;;;;12.65;100.00;101189.36;1799675;80;21120;-74
2022/05/25 03:10:12;;;;;;;3.65;1.55;;;;;;;12.59;100.00;101200.51;1777316;80;21467;-74
2022/05/25 03:12:40;;;;;;;3.58;1.15;;;;;;;12.67;100.00;101196.68;1780112;80;21039;-74
2022/05/25 03:15:08;;;;;;;4.42;0.95;;;;;;;12.68;100.00;101194.97;1773850;79;21098;-74
2022/05/25 03:17:35;;;;;;;8.10;1.15;;;;;;;12.64;100.00;101188.93;1780964;80;21124;-74
2022/05/25 03:20:03;;;;;;;3.33;0.82;;;;;;;12.55;100.00;101191.05;1799513;80;21117;-74
2022/05/25 03:22:34;;;;;;;4.65;1.22;;;;;;;12.53;100.00;101195.35;1799889;80;21159;-74
2022/05/25 03:24:59;;;;;;;1.55;0.95;;;;;;;12.54;100.00;101197.52;1799407;80;21093;-74
2022/05/25 03:27:27;;;;;;;4.03;1.32;;;;;;;12.54;100.00;101190.63;1799910;80;21550;-74
2022/05/25 03:29:54;;;;;;;1.77;0.90;;;;;;;12.64;100.00;101188.52;1777322;80;21074;-73
2022/05/25 03:32:22;;;;;;;7.00;1.85;;;;;;;12.63;100.00;101188.51;1799524;80;21057;-74
2022/05/25 03:34:49;;;;;;;2.05;1.05;;;;;;;12.67;100.00;101190.23;1800456;79;21302;-74
2022/05/25 03:37:17;;;;;;;5.35;1.22;;;;;;;12.67;100.00;101188.95;1799967;80;21112;-73
2022/05/25 03:39:44;;;;;;;7.58;1.02;;;;;;;12.62;100.00;101182.93;1799993;80;21129;-74
2022/05/25 03:42:14;;;;;;;5.53;1.07;;;;;;;12.57;100.00;101188.06;1798753;80;21015;-74
2022/05/25 03:44:42;;;;;;;5.33;1.20;;;;;;;12.62;100.00;101182.93;1799820;80;21534;-73
2022/05/25 03:47:09;;;;;;;3.10;0.70;;;;;;;12.62;100.00;101194.53;1799825;79;21132;-73
2022/05/25 03:49:36;;;;;;;4.97;1.05;;;;;;;12.63;100.00;101196.23;1800001;79;21038;-74
2022/05/25 03:52:05;;;;;;;8.33;0.98;;;;;;;12.46;100.00;101189.74;1799738;80;21050;-74
2022/05/25 03:54:33;;;;;;;2.50;1.05;;;;;;;12.46;100.00;101193.61;1799470;80;21156;-73
2022/05/25 03:57:00;;;;;;;5.47;1.00;;;;;;;12.35;100.00;101194.42;1799962;80;21053;-73
2022/05/25 03:59:28;;;;;;;3.98;0.98;;;;;;;12.45;100.00;101198.34;1799554;80;21176;-74
2022/05/25 04:01:55;;;;;;;3.45;1.40;;;;;;;12.42;100.00;101212.08;1812906;78;21152;-73
2022/05/25 04:04:22;;;;;;;4.12;1.17;;;;;;;12.34;100.00;101208.61;1819285;79;21073;-74
2022/05/25 04:06:50;;;;;;;3.17;0.80;;;;;;;12.32;100.00;101211.18;1814604;77;21115;-74
2022/05/25 04:09:17;;;;;;;6.22;1.57;;;;;;;12.35;100.00;101212.91;1814831;79;21598;-74
2022/05/25 04:11:45;;;;;;;4.15;1.72;;;;;;;12.36;100.00;101215.91;1805811;79;21114;-74
2022/05/25 04:14:15;;;;;;;6.15;1.25;;;;;;;12.38;100.00;101215.05;1790207;79;21104;-74
2022/05/25 04:16:42;;;;;;;6.28;1.20;;;;;;;12.41;100.00;101208.20;1790298;78;21249;-74
2022/05/25 04:19:10;;;;;;;6.95;2.40;;;;;;;12.49;100.00;101185.89;1795347;79;21123;-73
2022/05/25 04:21:38;;;;;;;9.03;2.30;;;;;;;12.45;100.00;101191.45;1814292;79;21043;-74
2022/05/25 04:24:06;;;;;;;2.98;1.20;;;;;;;12.45;100.00;101204.33;1814708;79;21636;-74
2022/05/25 04:26:34;;;;;;;7.42;1.80;;;;;;;12.56;100.00;101212.54;1789576;79;21045;-74
2022/05/25 04:29:01;;;;;;;6.42;1.25;;;;;;;12.55;100.00;101216.82;1814963;79;21072;-74
2022/05/25 04:31:29;;;;;;;4.92;1.07;;;;;;;12.56;100.00;101216.41;1814897;79;21090;-74
2022/05/25 04:33:56;;;;;;;4.87;1.35;;;;;;;12.58;100.00;101218.12;1814679;79;21196;-74
2022/05/25 04:36:24;;;;;;;5.65;1.35;;;;;;;12.60;100.00;101225.87;1814913;79;21562;-74
2022/05/25 04:38:51;;;;;;;5.35;1.35;;;;;;;12.67;100.00;101231.48;1813653;79;21558;-74
2022/05/25 04:41:19;;;;;;;8.80;1.67;;;;;;;12.72;100.00;101227.64;1814924;79;21033;-74
2022/05/25 04:43:46;;;;;;;2.77;1.50;;;;;;;12.70;100.00;101231.91;1789083;79;21606;-74
2022/05/25 04:46:14;;;;;;;3.85;1.55;;;;;;;12.64;100.00;101240.48;1814784;79;21289;-74
2022/05/25 04:48:41;;;;;;;7.37;1.62;;;;;;;12.71;100.00;101249.09;1789465;79;21027;-74
2022/05/25 04:51:09;;;;;;;4.83;1.17;;;;;;;12.73;100.00;101257.71;1814633;79;21081;-74
2022/05/25 04:53:36;;;;;;;5.58;1.10;;;;;;;12.76;100.00;101256.44;1814810;79;21025;-74
2022/05/25 04:58:49;;;;;;;3.50;1.17;;;;;;;12.89;100.00;101267.21;1775064;80;21087;-74
2022/05/25 05:01:19;;;;;;;4.90;2.15;;;;;;;12.94;100.00;101272.80;1814496;77;21577;-75
2022/05/25 05:03:46;;;;;;;7.33;1.35;;;;;;;13.11;100.00;101271.56;1814742;79;21121;-75
2022/05/25 05:06:14;;;;;;;7.40;1.45;;;;;;;13.23;100.00;101262.96;1814290;79;21163;-75
2022/05/25 05:08:42;;;;;;;7.80;2.02;;;;;;;13.20;100.00;101270.72;1813841;79;22239;-75
2022/05/25 05:11:12;;;;;;;7.37;1.52;;;;;;;13.35;100.00;101271.16;1786206;79;21041;-75
2022/05/25 05:13:40;;;;;;;6.35;1.30;;;;;;;13.54;100.00;101274.63;1785256;79;21075;-75
2022/05/25 05:16:11;;;;;;;5.00;1.17;;;;;;;13.62;100.00;101272.91;1794863;80;21165;-75
2022/05/25 05:18:39;;;;;;;5.78;1.40;;;;;;;13.78;100.00;101276.36;1807453;79;21049;-75
2022/05/25 05:21:07;;;;;;;5.97;1.57;;;;;;;13.93;100.00;101275.88;1814875;79;21053;-75
2022/05/25 05:23:37;;;;;;;4.53;1.55;;;;;;;13.92;100.00;101281.50;1814608;79;21133;-75
2022/05/25 05:26:05;;;;;;;8.53;1.90;;;;;;;14.10;100.00;101288.77;1815098;77;21184;-75
2022/05/25 05:28:34;;;;;;;7.17;1.95;;;;;;;14.09;100.00;101287.48;1813595;79;21198;-75
2022/05/25 05:31:05;;;;;;;2.67;1.22;;;;;;;13.99;100.00;101289.22;1812377;77;21511;-75
2022/05/25 05:33:34;;;;;;;5.53;1.77;;;;;;;14.14;100.00;101291.78;1810124;79;21188;-75
2022/05/25 05:36:10;;;;;;;7.25;1.35;;;;;;;14.13;100.00;101293.08;1809656;79;21236;-75
2022/05/25 05:38:42;;;;;;;7.75;1.67;;;;;;;14.14;100.00;101300.83;1801771;79;21586;-75
2022/05/25 05:41:10;;;;;;;5.22;1.32;;;;;;;14.13;100.00;101296.95;1808845;79;21070;-75
2022/05/25 05:43:38;;;;;;;7.37;1.35;;;;;;;14.11;100.00;101296.95;1808026;79;21117;-75
2022/05/25 05:46:06;;;;;;;4.20;1.22;;;;;;;14.01;100.00;101296.11;1810758;77;21814;-74
2022/05/25 05:48:35;;;;;;;6.42;1.27;;;;;;;14.11;100.00;101300.82;1806077;79;21172;-75
2022/05/25 05:51:04;;;;;;;7.30;1.22;;;;;;;14.07;100.00;101301.69;1806945;79;21117;-75
2022/05/25 05:53:32;;;;;;;3.47;1.42;;;;;;;14.09;100.00;101306.44;1810873;79;21557;-75
2022/05/25 05:56:00;;;;;;;3.90;1.32;;;;;;;14.21;100.00;101308.58;1809673;78;21216;-75
2022/05/25 05:58:27;;;;;;;5.50;1.32;;;;;;;14.16;100.00;101312.03;1819091;77;21502;-75
2022/05/25 06:00:55;;;;;;;5.67;1.60;;;;;;;14.26;100.00;101311.58;1816533;77;21145;-74
2022/05/25 06:03:22;;;;;;;7.70;1.45;;;;;;;14.35;100.00;101311.97;1824675;77;21081;-74
2022/05/25 06:05:50;;;;;;;6.22;1.00;;;;;;;14.57;100.00;101308.88;1808617;77;21071;-75
2022/05/25 06:08:21;;;;;;;3.15;1.42;;;;;;;14.61;100.00;101308.45;1791704;78;21127;-75
2022/05/25 06:10:49;;;;;;;5.37;1.15;;;;;;;14.94;100.00;101306.59;1785159;78;21093;-75
2022/05/25 06:13:16;;;;;;;4.65;1.20;;;;;;;14.94;100.00;101316.10;1816773;77;21129;-75
2022/05/25 06:21:19;;;;;;;7.25;1.80;;;;;;;15.06;100.00;101323.80;1874178;76;21684;-75
2022/05/25 06:23:47;;;;;;;9.03;1.75;;;;;;;15.19;100.00;101337.50;1878563;75;21101;-75
2022/05/25 06:26:15;;;;;;;5.62;1.10;;;;;;;15.11;100.00;101334.55;1840820;77;21085;-75
2022/05/25 06:28:44;;;;;;;3.50;1.45;;;;;;;15.28;100.00;101337.02;1806851;78;21068;-75
2022/05/25 06:31:12;;;;;;;7.42;1.85;;;;;;;15.38;100.00;101339.98;1832400;77;21678;-75
2022/05/25 06:33:39;;;;;;;3.95;1.10;;;;;;;15.64;100.00;101341.54;1781681;77;21105;-75
2022/05/25 06:36:19;;;;;;;9.35;1.67;;;;;;;15.73;100.00;101346.64;1788831;77;21147;-75
2022/05/25 06:38:47;;;;;;;5.12;1.10;;;;;;;15.81;100.00;101347.02;1872412;75;21059;-75
2022/05/25 06:41:15;;;;;;;8.53;1.75;;;;;;;15.78;100.00;101343.15;1876273;74;21073;-75
2022/05/25 06:43:45;;;;;;;6.30;1.65;;;;;;;15.70;100.00;101350.54;1842814;77;21108;-75
2022/05/25 06:46:18;;;;;;;3.77;1.15;;;;;;;15.90;100.00;101349.94;1807108;78;21085;-75
2022/05/25 06:48:44;;;;;;;10.03;1.32;;;;;;;16.38;100.00;101353.41;1828158;77;21434;-75
2022/05/25 06:51:14;;;;;;;7.60;1.67;;;;;;;16.49;100.00;101361.06;1877854;75;21077;-75
2022/05/25 06:53:45;;;;;;;6.67;1.35;;;;;;;16.29;100.00;101353.52;1849989;76;21079;-75
2022/05/25 06:56:12;;;;;;;2.70;1.00;;;;;;;16.36;100.00;101362.92;1876259;75;21116;-75
2022/05/25 06:58:40;;;;;;;4.45;1.05;;;;;;;16.24;100.00;101360.91;1872904;74;21083;-75
2022/05/25 07:01:07;;;;;;;4.15;1.15;;;;;;;16.29;100.00;101368.63;1838792;77;21041;-75
2022/05/25 07:03:35;;;;;;;3.47;1.40;;;;;;;16.48;100.00;101373.20;1876486;74;21390;-75
2022/05/25 07:06:06;;;;;;;5.55;1.40;;;;;;;16.40;100.00;101376.73;1838434;75;21156;-75
2022/05/25 07:08:34;;;;;;;3.85;1.50;;;;;;;16.62;100.00;101377.36;1805939;78;21111;-75
2022/05/25 07:11:02;;;;;;;5.37;1.52;;;;;;;16.28;100.00;101381.17;1777733;79;21053;-75
2022/05/25 07:13:30;;;;;;;3.40;1.25;;;;;;;16.17;100.00;101374.80;1807590;78;21210;-75
2022/05/25 07:16:01;;;;;;;6.05;1.40;;;;;;;16.23;100.00;101371.30;1806385;78;21145;-75
2022/05/25 07:18:29;;;;;;;6.53;1.40;;;;;;;16.28;100.00;101373.39;1816590;78;21040;-75
2022/05/25 07:21:09;;;;;;;9.03;2.17;;;;;;;16.56;100.00;101376.12;1855197;75;21545;-75
2022/05/25 07:23:38;;;;;;;4.67;1.22;;;;;;;16.49;100.00;101377.92;1815417;77;21117;-75
2022/05/25 07:26:09;;;;;;;7.28;1.40;;;;;;;16.60;100.00;101382.56;1854336;74;21203;-75
2022/05/25 07:28:37;;;;;;;18.87;1.90;;;;;;;16.63;100.00;101382.96;1817313;76;21049;-76
2022/05/25 07:31:21;;;;;;;9.43;2.05;;;;;;;16.56;100.00;101390.39;1853651;75;21081;-76
2022/05/25 07:33:51;;;;;;;7.35;1.87;;;;;;;16.44;100.00;101398.75;1851674;76;21125;-75
2022/05/25 07:36:19;;;;;;;7.50;1.72;;;;;;;16.47;100.00;101394.80;1860800;75;21032;-75
2022/05/25 07:38:49;;;;;;;6.60;1.02;;;;;;;16.49;100.00;101398.67;1849330;75;21115;-76
2022/05/25 07:41:17;;;;;;;6.72;1.20;;;;;;;16.64;100.00;101410.61;1825483;77;21111;-75
2022/05/25 07:43:47;;;;;;;5.17;0.95;;;;;;;16.54;100.00;101415.07;1867218;75;21022;-76
2022/05/25 07:46:15;;;;;;;4.97;1.75;;;;;;;16.59;100.00;101417.59;1816171;78;21055;-76
2022/05/25 07:48:42;;;;;;;3.58;1.35;;;;;;;16.72;100.00;101419.20;1830710;76;21167;-76
2022/05/25 07:51:10;;;;;;;5.75;1.17;;;;;;;16.85;100.00;101424.25;1841320;77;21008;-76
2022/05/25 07:53:56;;;;;;;2.77;1.10;;;;;;;16.94;100.00;101431.05;1821540;77;21056;-76
2022/05/25 07:56:32;;;;;;;2.70;0.88;;;;;;;16.79;100.00;101432.09;1832338;77;21064;-76
2022/05/25 07:59:01;;;;;;;7.85;1.17;;;;;;;16.74;100.00;101430.83;1858295;76;21108;-76
2022/05/25 08:07:03;;;;;;;7.85;1.22;;;;;;;17.18;100.00;101438.14;1849553;77;21131;-75
2022/05/25 08:09:31;;;;;;;5.58;1.20;;;;;;;17.08;100.00;101436.97;1849872;76;21156;-75
2022/05/25 08:11:59;;;;;;;4.80;0.98;;;;;;;16.74;100.00;101433.42;1813833;78;21099;-75
2022/05/25 08:14:28;;;;;;;5.55;1.20;;;;;;;16.94;100.00;101433.21;1815578;77;21054;-75
2022/05/25 08:16:56;;;;;;;2.83;0.88;;;;;;;16.75;100.00;101436.47;1805608;78;21089;-75
2022/05/25 08:19:24;;;;;;;2.58;0.80;;;;;;;17.17;100.00;101436.01;1828122;78;21080;-75
2022/05/25 08:21:56;;;;;;;6.42;1.60;;;;;;;16.96;100.00;101436.66;1828652;78;21033;-75
2022/05/25 08:24:20;;;;;;;2.60;1.02;;;;;;;16.73;100.00;101448.58;1828392;78;21084;-75
2022/05/25 08:26:48;;;;;;;3.02;1.20;;;;;;;16.58;100.00;101453.08;1828704;78;21206;-75
2022/05/25 08:29:15;;;;;;;5.75;1.27;;;;;;;16.55;100.00;101449.63;1828546;78;21529;-75
2022/05/25 08:31:43;;;;;;;8.45;1.15;;;;;;;16.67;100.00;101446.91;1828569;78;21097;-75
2022/05/25 08:34:11;;;;;;;7.37;1.47;;;;;;;16.95;100.00;101456.98;1828432;78;21076;-75
2022/05/25 08:36:38;;;;;;;5.95;1.00;;;;;;;16.84;100.00;101449.75;1827661;78;21592;-75
2022/05/25 08:39:06;;;;;;;2.45;0.90;;;;;;;17.18;100.00;101454.59;1827538;77;21146;-76
2022/05/25 08:41:37;;;;;;;5.55;0.80;;;;;;;17.48;100.00;101460.70;1827361;77;21050;-76
2022/05/25 08:44:05;;;;;;;3.62;1.15;;;;;;;17.31;100.00;101457.03;1830829;77;21567;-75
2022/05/25 08:46:34;;;;;;;3.60;1.70;;;;;;;17.44;100.00;101462.47;1803311;78;21095;-76
2022/05/25 08:49:03;;;;;;;2.62;1.05;;;;;;;17.21;100.00;101463.65;1797335;79;21045;-75
2022/05/25 08:51:32;;;;;;;6.78;1.07;;;;;;;17.44;100.00;101465.53;1840281;75;21021;-76
2022/05/25 08:54:00;;;;;;;4.45;1.15;;;;;;;17.08;100.00;101468.55;1840440;76;21172;-75
2022/05/25 08:56:31;;;;;;;5.20;1.00;;;;;;;17.34;100.00;101463.48;1831860;76;21449;-75
2022/05/25 08:59:04;;;;;;;7.10;1.40;;;;;;;17.29;100.00;101467.44;1798057;78;21438;-76
2022/05/25 09:01:38;;;;;;;2.72;1.25;;;;;;;16.98;100.00;101466.04;1771314;80;21519;-76
2022/05/25 09:04:08;;;;;;;4.10;1.02;;;;;;;17.26;100.00;101465.73;1808582;76;21236;-76
2022/05/25 09:07:16;;;;;;;3.65;1.15;;;;;;;17.11;100.00;101452.52;1825063;76;21084;-75
2022/05/25 09:09:46;;;;;;;4.70;0.80;;;;;;;17.00;100.00;101452.62;1854570;76;21087;-76
2022/05/25 09:12:17;;;;;;;2.37;0.90;;;;;;;16.61;100.00;101459.96;1826399;76;21049;-75
2022/05/25 09:14:50;;;;;;;6.33;1.20;;;;;;;16.51;100.00;101467.81;1877742;74;21075;-75
2022/05/25 09:17:37;;;;;;;6.03;1.20;;;;;;;16.19;100.00;101461.18;1834213;76;21097;-75
2022/05/25 09:20:06;;;;;;;1.80;0.82;;;;;;;15.45;100.00;101465.96;1879574;75;21100;-75
2022/05/25 09:22:33;;;;;;;3.20;0.82;;;;;;;14.98;100.00;101468.30;1883952;75;21033;-75
2022/05/25 09:25:03;;;;;;;2.58;0.80;;;;;;;14.50;100.00;101477.85;1846500;76;21144;-74
2022/05/25 09:27:34;;;;;;;5.33;1.52;;;;;;;14.57;100.00;101471.78;1878185;75;21485;-74
2022/05/25 09:30:03;;;;;;;7.00;1.67;;;;;;;14.53;100.00;101471.36;1877496;75;21095;-74
2022/05/25 09:32:37;;;;;;;4.47;1.37;;;;;;;14.81;100.00;101465.33;1815219;76;21102;-75
2022/05/25 09:35:10;;;;;;;4.22;1.40;;;;;;;14.93;100.00;101464.00;1883919;74;21119;-75
2022/05/25 09:37:58;;;;;;;4.97;0.98;;;;;;;15.51;100.00;101462.48;1881389;74;21071;-75
2022/05/25 09:40:34;;;;;;;3.08;1.20;;;;;;;15.89;100.00;101457.94;1884313;75;21641;-75
2022/05/25 09:43:04;;;;;;;4.50;1.12;;;;;;;16.04;100.00;101469.08;1842868;76;21549;-75
2022/05/25 09:45:50;;;;;;;6.42;1.55;;;;;;;15.97;100.00;101477.33;1880641;75;21444;-75
2022/05/25 09:48:28;;;;;;;6.87;1.52;;;;;;;15.88;100.00;101474.36;1879828;75;21083;-75
2022/05/25 09:51:02;;;;;;;6.62;1.82;;;;;;;16.14;100.00;101472.45;1845116;76;21040;-75
2022/05/25 09:53:37;;;;;;;;;;;;;;;16.49;100.00;101475.19;1819735;78;22301;-75
2022/05/25 09:56:06;;;;;;;;;;;;;;;16.73;100.00;101476.70;1817486;77;20120;-76
2022/05/25 09:58:36;;;;;;;8.80;2.42;;;;;;;16.81;100.00;101473.17;1829185;77;20125;-75
2022/05/25 10:01:15;;;;;;;4.10;2.20;;;;;;;16.64;100.00;101471.58;1818474;77;21055;-75
2022/05/25 10:03:45;;;;;;;9.85;2.00;;;;;;;16.84;100.00;101473.98;1876929;75;21028;-75
2022/05/25 10:06:24;;;;;;;3.27;1.22;;;;;;;17.01;100.00;101474.23;1882676;74;21158;-75
2022/05/25 10:09:12;;;;;;;8.90;1.72;;;;;;;17.39;100.00;101477.27;1807527;77;21243;-76
2022/05/25 10:11:51;;;;;;;6.28;1.65;;;;;;;17.25;100.00;101491.30;1826447;77;21119;-75
2022/05/25 10:14:42;;;;;;;4.50;1.67;;;;;;;17.03;100.00;101491.50;1793097;79;21168;-75
2022/05/25 10:17:12;;;;;;;6.75;1.45;;;;;;;16.94;100.00;101489.02;1861962;75;21276;-75
2022/05/25 10:19:48;;;;;;;5.97;1.77;;;;;;;17.10;100.00;101491.48;1866717;75;21149;-76
2022/05/25 10:22:24;;;;;;;7.17;1.60;;;;;;;16.78;100.00;101494.83;1862951;75;21112;-76
2022/05/25 10:25:10;;;;;;;6.80;1.67;;;;;;;17.06;100.00;101488.50;1853913;76;21156;-76
2022/05/25 10:27:45;;;;;;;8.40;1.42;;;;;;;17.22;100.00;101491.33;1863140;75;21067;-76
2022/05/25 10:38:29;;;;;;;5.83;1.50;;;;;;;17.24;100.00;101525.07;1864856;75;21184;-76
2022/05/25 10:41:37;;;;;;;7.53;2.22;;;;;;;17.35;100.00;101513.25;1863612;75;21148;-75
2022/05/25 10:43:31;;;;;;;7.78;2.17;;;;;;;17.59;100.00;101522.48;1859042;75;21592;-75
2022/05/25 10:46:01;;;;;;;6.97;1.60;;;;;;;17.82;100.00;101524.34;1864066;75;21137;-76
2022/05/25 10:48:44;;;;;;;3.20;1.60;;;;;;;17.95;100.00;101525.03;1861325;76;21082;-75
2022/05/25 10:51:18;;;;;;;5.08;1.47;;;;;;;18.19;100.00;101530.31;1862514;75;21128;-76
2022/05/25 10:56:41;;;;;;;5.35;1.75;;;;;;;17.89;100.00;101535.08;1858639;76;21370;-76
2022/05/25 10:59:12;;;;;;;7.58;1.77;;;;;;;18.02;100.00;101540.51;1856526;76;21041;-74
2022/05/25 11:01:55;;;;;;;5.65;1.85;;;;;;;17.88;100.00;101538.53;1838074;77;21086;-76
2022/05/25 11:04:31;;;;;;;7.17;1.35;;;;;;;17.62;100.00;101532.84;1845311;75;21098;-76
2022/05/25 11:07:10;;;;;;;6.92;2.17;;;;;;;17.72;100.00;101538.78;1868898;76;21162;-76
2022/05/25 11:09:58;;;;;;;3.35;1.40;;;;;;;17.61;100.00;101531.56;1869714;76;21039;-76
2022/05/25 11:12:45;;;;;;;7.35;2.22;;;;;;;17.57;100.00;101538.97;1874460;75;21529;-76
2022/05/25 11:15:31;;;;;;;6.20;1.82;;;;;;;17.45;100.00;101536.08;1839656;75;21157;-76
2022/05/25 11:18:13;;;;;;;8.03;1.50;;;;;;;17.58;100.00;101536.78;1793787;79;21118;-73
2022/05/25 11:21:03;;;;;;;7.25;1.62;;;;;;;17.94;100.00;101537.16;1867090;75;21101;-75
2022/05/25 11:24:01;;;;;;;6.85;2.20;;;;;;;18.23;100.00;101539.79;1865888;75;21094;-75
2022/05/25 11:26:34;;;;;;;5.35;2.08;;;;;;;18.15;100.00;101540.34;1868541;75;21035;-75
2022/05/25 11:29:20;;;;;;;6.50;1.92;;;;;;;18.17;100.00;101544.64;1758449;79;21116;-75
2022/05/25 11:31:50;;;;;;;11.00;3.77;;;;;;;17.86;100.00;101537.28;1866132;75;21016;-75
2022/05/25 11:34:50;;;;;;;10.85;1.82;;;;;;;17.32;100.00;101548.34;1867778;75;21079;-75
2022/05/25 11:37:35;;;;;;;13.80;3.22;;;;;;;17.44;100.00;101544.75;1868033;75;21059;-75
2022/05/25 11:40:34;;;;;;;7.12;2.33;;;;;;;17.36;100.00;101548.30;1866468;76;21035;-74
2022/05/25 11:43:20;;;;;;;7.95;2.72;;;;;;;17.31;100.00;101550.52;1866475;75;21020;-75
2022/05/25 11:46:11;;;;;;;6.37;1.70;;;;;;;17.16;100.00;101547.21;1867989;76;21118;-75
2022/05/25 11:49:02;;;;;;;6.85;1.85;;;;;;;17.09;100.00;101555.52;1867392;76;21043;-75
2022/05/25 11:51:38;;;;;;;6.25;1.92;;;;;;;16.97;100.00;101563.39;1867343;75;21028;-74
2022/05/25 11:54:28;;;;;;;5.67;2.12;;;;;;;16.05;100.00;101558.94;1867017;75;21132;-74
2022/05/25 11:57:15;;;;;;;5.00;1.70;;;;;;;16.37;100.00;101559.16;1868046;75;21016;-75
2022/05/25 12:00:11;;;;;;;5.65;1.50;;;;;;;16.48;100.00;101559.94;1868653;76;21134;-74
2022/05/25 12:03:03;;;;;;;13.50;4.10;;;;;;;16.99;100.00;101565.09;1867436;75;21036;-75
2022/05/25 12:05:50;;;;;;;8.45;1.98;;;;;;;17.61;100.00;101571.38;1861051;75;21541;-75
2022/05/25 12:08:32;;;;;;;8.15;2.42;;;;;;;17.31;100.00;101569.58;1843438;76;21106;-75
2022/05/25 12:11:09;;;;;;;7.97;1.70;;;;;;;17.62;100.00;101567.05;1842604;76;21463;-75
2022/05/25 12:13:43;;;;;;;4.95;1.30;;;;;;;17.77;100.00;101562.08;1843831;76;21043;-75
2022/05/25 12:16:13;;;;;;;4.42;0.90;;;;;;;17.95;100.00;101572.67;1838218;77;21084;-75
2022/05/25 12:18:47;;;;;;;2.10;1.02;;;;;;;17.95;100.00;101571.37;1840558;77;21055;-75
2022/05/25 12:21:26;;;;;;;2.65;1.00;;;;;;;18.34;100.00;101566.09;1840828;77;21022;-75
2022/05/25 12:24:05;;;;;;;3.17;1.95;;;;;;;18.41;100.00;101565.11;1840569;77;21451;-75